Cannon Ball, North Dakota
Current Conditions -  °F | °C
As of 2:35 PM on Thursday 23 Oct 2014 (Local Time) from K7L2 Reporting Station
Clear Clear  
Wind Chill: 22°   Ceiling: Unl
Heat Index: 22°   Visibility: 10mi
Dew Point:   Wind: 12mph
Humidity: 23%   Direction: 210°SSW
Pressure: 29.84"   Gusts: NA
Location:  46.4°N, 100.6°W
Report Text: K7L2 232035Z AUTO 21010KT 10SM CLR 22/00 A2984 RMK AO2 PWINO PNO
Loading
Personal Weather Stations






























Interactive Weather Map
Tropical Storm Tracking
New forecast layout! Learn more

10-Day Weather Forecast

Advertisements
Track Severe Weather on mobile